Time;durP1;ratioP1;P1;durP2;ratioP2;P2;SDS_P1;SDS_P2;PMS_P1;PMS_P2;Temp;Humidity;BMP_temperature;BMP_pressure;BME280_temperature;BME280_humidity;BME280_pressure;Samples;Min_cycle;Max_cycle;Signal;HPM_P1;HPM_P2
2023/12/24 00:01:45;;;;;;;0.93;0.00;;;6.80;99.90;;;;;;5044535;28;20197;-63
2023/12/24 00:04:13;;;;;;;0.00;0.00;;;6.80;99.90;;;;;;5053733;28;20271;-63
2023/12/24 00:06:40;;;;;;;0.00;0.00;;;;;;;;;;5053238;28;20254;-63
2023/12/24 00:09:07;;;;;;;0.00;0.00;;;;;;;;;;5053483;28;20205;-63
2023/12/24 00:11:34;;;;;;;0.00;0.00;;;;;;;;;;5034842;28;20207;-63
2023/12/24 00:14:03;;;;;;;0.00;0.00;;;;;;;;;;5049195;28;20735;-63
2023/12/24 00:16:30;;;;;;;0.00;0.00;;;;;;;;;;5053656;28;20204;-63
2023/12/24 00:18:57;;;;;;;0.20;0.00;;;;;;;;;;5042188;28;20757;-63
2023/12/24 00:21:26;;;;;;;1.40;0.00;;;;;;;;;;5041912;28;20208;-63
2023/12/24 00:23:53;;;;;;;0.00;0.00;;;7.00;99.90;;;;;;5026081;28;20221;-63
2023/12/24 00:26:20;;;;;;;0.00;0.00;;;7.10;99.90;;;;;;5028969;28;20622;-63
2023/12/24 00:28:49;;;;;;;0.00;0.00;;;7.10;99.90;;;;;;5032736;28;20208;-63
2023/12/24 00:31:16;;;;;;;0.00;0.00;;;7.10;99.90;;;;;;5033185;28;20201;-63
2023/12/24 00:33:42;;;;;;;0.00;0.00;;;7.00;99.90;;;;;;5037746;28;20249;-63
2023/12/24 00:36:09;;;;;;;0.07;0.07;;;7.00;99.90;;;;;;5044878;28;20202;-63
2023/12/24 00:38:38;;;;;;;0.20;0.00;;;7.00;99.90;;;;;;5020116;28;20203;-63
2023/12/24 00:41:05;;;;;;;0.00;0.00;;;7.00;99.90;;;;;;5016894;28;20256;-62
2023/12/24 00:43:32;;;;;;;0.00;0.00;;;7.20;99.90;;;;;;5032743;28;20217;-63
2023/12/24 00:45:59;;;;;;;0.00;0.00;;;7.30;99.90;;;;;;5039054;28;20296;-63
2023/12/24 00:48:26;;;;;;;0.57;0.20;;;7.30;99.90;;;;;;5041558;28;20199;-63
2023/12/24 00:50:53;;;;;;;0.20;0.00;;;7.30;99.90;;;;;;5040987;28;20218;-63
2023/12/24 00:53:20;;;;;;;0.00;0.00;;;7.50;99.90;;;;;;5032022;28;20196;-63
2023/12/24 00:55:49;;;;;;;0.07;0.07;;;7.30;99.90;;;;;;5033083;28;20279;-64
2023/12/24 00:58:17;;;;;;;0.47;0.47;;;7.20;99.90;;;;;;5040911;28;20204;-63
2023/12/24 01:00:46;;;;;;;0.00;0.00;;;7.20;99.90;;;;;;5014339;28;20224;-63
2023/12/24 01:03:13;;;;;;;0.10;0.10;;;7.20;99.90;;;;;;5021766;28;20281;-63
2023/12/24 01:05:40;;;;;;;0.10;0.03;;;7.20;99.90;;;;;;5042756;28;20803;-63
2023/12/24 01:08:07;;;;;;;0.10;0.10;;;7.20;99.90;;;;;;5041330;28;20212;-63
2023/12/24 01:10:34;;;;;;;0.00;0.00;;;7.20;99.90;;;;;;5052477;28;20746;-63
2023/12/24 01:13:02;;;;;;;0.00;0.00;;;7.20;99.90;;;;;;5024725;28;20197;-63
2023/12/24 01:15:29;;;;;;;0.37;0.10;;;7.20;99.90;;;;;;5024115;28;20204;-63
2023/12/24 01:17:57;;;;;;;0.10;0.10;;;7.20;99.90;;;;;;5032520;28;20695;-63
2023/12/24 01:20:24;;;;;;;1.17;0.10;;;7.00;99.90;;;;;;5031804;28;20437;-63
2023/12/24 01:22:51;;;;;;;0.00;0.00;;;7.00;99.90;;;;;;5046996;28;20274;-63
2023/12/24 01:25:17;;;;;;;0.10;0.10;;;6.90;99.90;;;;;;5024859;28;20265;-63
2023/12/24 01:27:44;;;;;;;0.20;0.20;;;7.00;99.90;;;;;;5030346;28;20225;-63
2023/12/24 01:30:13;;;;;;;0.10;0.10;;;7.10;99.90;;;;;;5038716;28;20651;-63
2023/12/24 01:32:40;;;;;;;0.00;0.00;;;7.10;99.90;;;;;;5044657;28;20281;-63
2023/12/24 01:35:08;;;;;;;0.10;0.10;;;7.10;99.90;;;;;;5052458;28;20233;-63
2023/12/24 01:37:35;;;;;;;0.10;0.10;;;7.10;99.90;;;;;;5042814;28;20201;-63
2023/12/24 01:40:02;;;;;;;0.10;0.10;;;7.10;99.90;;;;;;5038649;28;20327;-63
2023/12/24 01:42:29;;;;;;;0.30;0.10;;;7.00;99.90;;;;;;5016766;28;20213;-63
2023/12/24 01:44:56;;;;;;;0.10;0.10;;;7.10;99.90;;;;;;5028462;28;20278;-63
2023/12/24 01:47:24;;;;;;;0.20;0.20;;;7.10;99.90;;;;;;5027527;28;20198;-63
2023/12/24 01:49:51;;;;;;;0.20;0.20;;;7.00;99.90;;;;;;5037461;28;20281;-63
2023/12/24 01:52:19;;;;;;;0.13;0.13;;;6.80;99.90;;;;;;5033061;28;20192;-63
2023/12/24 01:54:48;;;;;;;1.60;0.17;;;6.70;99.90;;;;;;5040481;28;20251;-63
2023/12/24 01:57:16;;;;;;;0.20;0.20;;;6.60;99.90;;;;;;5031476;28;20570;-63
2023/12/24 01:59:43;;;;;;;0.30;0.30;;;6.50;99.90;;;;;;5035241;28;20224;-63
2023/12/24 02:02:10;;;;;;;0.40;0.30;;;6.40;99.90;;;;;;5029380;28;20202;-63
2023/12/24 02:04:39;;;;;;;0.27;0.20;;;6.30;99.90;;;;;;5037447;28;20219;-63
2023/12/24 02:07:06;;;;;;;0.20;0.20;;;6.20;99.90;;;;;;5031621;28;20204;-63
2023/12/24 02:09:33;;;;;;;0.73;0.43;;;6.10;99.90;;;;;;5031048;28;20277;-63
2023/12/24 02:12:00;;;;;;;0.30;0.30;;;6.10;99.90;;;;;;5043331;28;20281;-63
2023/12/24 02:14:27;;;;;;;1.10;0.40;;;6.10;99.90;;;;;;5051353;28;20199;-63
2023/12/24 02:16:59;;;;;;;0.30;0.20;;;6.10;99.90;;;;;;5031976;28;20633;-64
2023/12/24 02:19:26;;;;;;;0.20;0.20;;;6.00;99.90;;;;;;5032738;28;20764;-63
2023/12/24 02:21:56;;;;;;;0.30;0.30;;;6.00;99.90;;;;;;5043359;28;20199;-63
2023/12/24 02:24:23;;;;;;;0.97;0.77;;;6.00;99.90;;;;;;5043201;28;20783;-63
2023/12/24 02:27:01;;;;;;;0.30;0.30;;;6.00;99.90;;;;;;5029627;28;20197;-63
2023/12/24 02:29:33;;;;;;;0.20;0.20;;;6.00;99.90;;;;;;5031741;28;20670;-63
2023/12/24 02:32:07;;;;;;;0.40;0.40;;;6.00;99.90;;;;;;5040531;28;20199;-63
2023/12/24 02:34:37;;;;;;;0.40;0.40;;;6.00;99.90;;;;;;5051264;28;20253;-63
2023/12/24 02:37:06;;;;;;;0.43;0.30;;;5.90;99.90;;;;;;5051700;28;20672;-63
2023/12/24 02:39:33;;;;;;;0.30;0.30;;;5.90;99.90;;;;;;5048820;28;20224;-63
2023/12/24 02:42:00;;;;;;;0.50;0.30;;;5.80;99.90;;;;;;5041217;28;20722;-63
2023/12/24 02:44:27;;;;;;;0.40;0.40;;;5.70;99.90;;;;;;5015084;28;20281;-63
2023/12/24 02:46:57;;;;;;;0.40;0.40;;;5.70;99.90;;;;;;5031474;28;20580;-64
2023/12/24 02:49:24;;;;;;;0.70;0.40;;;5.60;99.90;;;;;;5026798;28;20220;-63
2023/12/24 02:51:51;;;;;;;0.97;0.60;;;5.50;99.90;;;;;;5039243;28;20263;-63
2023/12/24 02:54:19;;;;;;;0.30;0.30;;;5.60;99.90;;;;;;5049756;28;20741;-64
2023/12/24 02:56:46;;;;;;;0.47;0.40;;;5.50;99.90;;;;;;5039770;28;20263;-63
2023/12/24 02:59:13;;;;;;;0.63;0.53;;;5.40;99.90;;;;;;5042305;28;20638;-63
2023/12/24 03:01:40;;;;;;;0.40;0.40;;;5.40;99.90;;;;;;5033906;28;20203;-63
2023/12/24 03:04:07;;;;;;;0.30;0.30;;;5.30;99.90;;;;;;5031390;28;20224;-63
2023/12/24 03:06:34;;;;;;;0.53;0.40;;;5.10;99.90;;;;;;5024277;28;20224;-63
2023/12/24 03:09:01;;;;;;;0.30;0.30;;;5.20;99.90;;;;;;5028244;28;20207;-63
2023/12/24 03:11:29;;;;;;;0.50;0.50;;;5.10;99.90;;;;;;5047772;28;20204;-63
2023/12/24 03:13:56;;;;;;;0.67;0.40;;;5.00;99.90;;;;;;5031980;28;20201;-64
2023/12/24 03:16:23;;;;;;;0.50;0.50;;;4.90;99.90;;;;;;5021200;28;20198;-63
2023/12/24 03:18:50;;;;;;;0.40;0.40;;;4.80;99.90;;;;;;5034313;28;20251;-64
2023/12/24 03:21:17;;;;;;;1.20;0.37;;;4.70;99.90;;;;;;5042054;28;20208;-63
2023/12/24 03:23:44;;;;;;;0.60;0.40;;;4.80;99.90;;;;;;5042877;28;20216;-63
2023/12/24 03:26:20;;;;;;;0.30;0.30;;;4.60;99.90;;;;;;5038279;28;20457;-63
2023/12/24 03:28:49;;;;;;;0.93;0.43;;;4.60;99.90;;;;;;5038100;28;20635;-63
2023/12/24 03:31:16;;;;;;;0.40;0.40;;;4.70;99.90;;;;;;5023673;28;20225;-63
2023/12/24 03:33:43;;;;;;;1.67;0.37;;;4.60;99.90;;;;;;5045035;28;20225;-62
2023/12/24 03:36:10;;;;;;;0.67;0.47;;;4.60;99.90;;;;;;5054674;28;20255;-63
2023/12/24 03:38:37;;;;;;;0.80;0.47;;;4.50;99.90;;;;;;5051991;28;20617;-63
2023/12/24 03:41:04;;;;;;;0.40;0.40;;;4.60;99.90;;;;;;5046250;28;20278;-63
2023/12/24 03:43:31;;;;;;;0.37;0.23;;;4.50;99.90;;;;;;5037076;28;20211;-63
2023/12/24 03:46:00;;;;;;;0.50;0.50;;;4.40;99.90;;;;;;5032741;28;20209;-63
2023/12/24 03:48:27;;;;;;;0.30;0.30;;;4.40;99.90;;;;;;5033802;28;20211;-63
2023/12/24 03:50:54;;;;;;;0.40;0.40;;;4.30;99.90;;;;;;5032611;28;20278;-63
2023/12/24 03:53:20;;;;;;;0.60;0.30;;;4.30;99.90;;;;;;5043228;28;20200;-63
2023/12/24 03:55:47;;;;;;;0.40;0.40;;;4.40;99.90;;;;;;5053712;28;20671;-63
2023/12/24 03:58:14;;;;;;;0.57;0.40;;;4.40;99.90;;;;;;5033561;28;20207;-63
2023/12/24 04:00:41;;;;;;;0.60;0.60;;;4.40;99.90;;;;;;5031695;28;20311;-63
2023/12/24 04:03:10;;;;;;;0.47;0.40;;;4.30;99.90;;;;;;5060431;23;20203;-66
2023/12/24 04:05:37;;;;;;;0.30;0.30;;;4.50;99.90;;;;;;5013525;28;20274;-66
2023/12/24 04:08:04;;;;;;;0.20;0.20;;;4.30;99.90;;;;;;5015851;28;20250;-66
2023/12/24 04:10:32;;;;;;;0.40;0.40;;;4.40;99.90;;;;;;5031123;28;20288;-65
2023/12/24 04:13:02;;;;;;;0.63;0.63;;;4.40;99.90;;;;;;5024424;28;20281;-66
2023/12/24 04:15:29;;;;;;;0.60;0.40;;;4.60;99.90;;;;;;5032956;28;20701;-66
2023/12/24 04:17:56;;;;;;;1.57;0.50;;;4.40;99.90;;;;;;5032504;28;20204;-66
2023/12/24 04:20:24;;;;;;;0.40;0.30;;;4.40;99.90;;;;;;5026843;28;20263;-66
2023/12/24 04:22:51;;;;;;;0.70;0.67;;;4.50;99.90;;;;;;5024126;28;20224;-66
2023/12/24 04:25:18;;;;;;;0.83;0.53;;;4.40;99.90;;;;;;5016017;28;20694;-66
2023/12/24 04:27:45;;;;;;;0.47;0.30;;;4.30;99.90;;;;;;5014967;28;20210;-66
2023/12/24 04:30:13;;;;;;;1.90;0.50;;;4.30;99.90;;;;;;5011514;28;20259;-66
2023/12/24 04:32:39;;;;;;;0.50;0.50;;;4.10;99.90;;;;;;5020891;28;20202;-65
2023/12/24 04:35:07;;;;;;;0.50;0.40;;;4.20;99.90;;;;;;5028933;28;20301;-66
2023/12/24 04:37:36;;;;;;;0.50;0.30;;;4.20;99.90;;;;;;5032149;28;20734;-66
2023/12/24 04:40:04;;;;;;;0.40;0.40;;;4.00;99.90;;;;;;5028383;28;20200;-66
2023/12/24 04:42:31;;;;;;;0.40;0.40;;;4.00;99.90;;;;;;5016248;28;20209;-66
2023/12/24 04:44:58;;;;;;;0.40;0.40;;;4.10;99.90;;;;;;5012753;28;20229;-66
2023/12/24 04:47:25;;;;;;;0.37;0.37;;;4.20;99.90;;;;;;5011796;28;20296;-66
2023/12/24 04:49:52;;;;;;;0.30;0.30;;;4.20;99.90;;;;;;5011762;28;20208;-65
2023/12/24 04:52:20;;;;;;;0.53;0.50;;;4.00;99.90;;;;;;5020037;28;20725;-67
2023/12/24 04:54:48;;;;;;;1.80;0.20;;;4.10;99.90;;;;;;5014830;28;20264;-65
2023/12/24 04:57:15;;;;;;;1.97;0.60;;;4.00;99.90;;;;;;5011693;28;20209;-65
2023/12/24 04:59:43;;;;;;;0.50;0.50;;;3.90;99.90;;;;;;5012762;28;20215;-63
2023/12/24 05:02:09;;;;;;;0.77;0.47;;;4.00;99.90;;;;;;5015865;28;20201;-64
2023/12/24 05:04:36;;;;;;;1.20;0.73;;;3.90;99.90;;;;;;5019780;28;20231;-64
2023/12/24 05:07:04;;;;;;;0.30;0.30;;;3.90;99.90;;;;;;5014883;28;20216;-64
2023/12/24 05:09:31;;;;;;;1.13;0.30;;;4.00;99.90;;;;;;5022607;28;20200;-64
2023/12/24 05:11:59;;;;;;;0.50;0.40;;;4.00;99.90;;;;;;5018043;28;20262;-64
2023/12/24 05:14:29;;;;;;;0.60;0.60;;;4.00;99.90;;;;;;5018524;28;20285;-64
2023/12/24 05:16:59;;;;;;;0.30;0.30;;;3.80;99.90;;;;;;5023217;28;20220;-63
2023/12/24 05:19:26;;;;;;;1.07;0.40;;;3.70;99.90;;;;;;5022849;28;20212;-63
2023/12/24 05:21:57;;;;;;;0.50;0.50;;;3.80;99.90;;;;;;5025320;28;20204;-64
2023/12/24 05:24:24;;;;;;;0.60;0.40;;;3.70;99.90;;;;;;5029189;28;20494;-64
2023/12/24 05:26:55;;;;;;;0.30;0.30;;;3.80;99.90;;;;;;5025907;28;20202;-64
2023/12/24 05:29:24;;;;;;;0.47;0.40;;;3.60;99.90;;;;;;5017436;28;20206;-64
2023/12/24 05:31:56;;;;;;;0.47;0.30;;;3.70;99.90;;;;;;5010699;28;20664;-63
2023/12/24 05:34:23;;;;;;;0.40;0.40;;;3.60;99.90;;;;;;5010949;28;20222;-64
2023/12/24 05:36:54;;;;;;;0.37;0.33;;;3.60;99.90;;;;;;5011221;28;20214;-64
2023/12/24 05:39:21;;;;;;;0.70;0.60;;;3.70;99.90;;;;;;5010247;28;20259;-63
2023/12/24 05:41:48;;;;;;;1.80;0.40;;;3.80;99.90;;;;;;5011471;28;20200;-64
2023/12/24 05:44:15;;;;;;;0.47;0.40;;;3.70;99.90;;;;;;5010244;28;20672;-64
2023/12/24 05:46:43;;;;;;;0.57;0.57;;;3.80;99.90;;;;;;5009075;28;20336;-64
2023/12/24 05:49:10;;;;;;;0.97;0.40;;;3.90;99.90;;;;;;5010807;28;20243;-64
2023/12/24 05:51:37;;;;;;;0.40;0.40;;;4.10;99.90;;;;;;5011130;28;20213;-64
2023/12/24 05:54:04;;;;;;;0.40;0.40;;;4.20;99.90;;;;;;5011286;28;20225;-63
2023/12/24 05:56:31;;;;;;;0.30;0.30;;;4.20;99.90;;;;;;5011447;28;20198;-64
2023/12/24 05:58:58;;;;;;;0.67;0.30;;;4.10;99.90;;;;;;5011436;28;20259;-64
2023/12/24 06:01:25;;;;;;;0.23;0.20;;;4.10;99.90;;;;;;5011360;28;20255;-64
2023/12/24 06:03:53;;;;;;;0.80;0.23;;;4.20;99.90;;;;;;5010932;28;20227;-64
2023/12/24 06:06:20;;;;;;;1.60;0.50;;;4.20;99.90;;;;;;5010088;28;20205;-65
2023/12/24 06:08:47;;;;;;;0.20;0.20;;;4.10;99.90;;;;;;5010363;28;20213;-66
2023/12/24 06:11:18;;;;;;;0.50;0.47;;;4.30;99.90;;;;;;5010969;28;20208;-66
2023/12/24 06:13:45;;;;;;;0.50;0.50;;;4.10;99.90;;;;;;5011168;28;20229;-66
2023/12/24 06:16:13;;;;;;;0.57;0.40;;;4.30;99.90;;;;;;5010276;28;20197;-66
2023/12/24 06:18:40;;;;;;;0.60;0.60;;;4.20;99.90;;;;;;5010487;28;20208;-66
2023/12/24 06:21:10;;;;;;;0.30;0.30;;;4.20;99.90;;;;;;5011110;28;20201;-64
2023/12/24 06:23:37;;;;;;;0.60;0.40;;;4.30;99.90;;;;;;5010729;28;20252;-64
2023/12/24 06:26:05;;;;;;;0.43;0.40;;;4.30;99.90;;;;;;5009702;28;20313;-64
2023/12/24 06:28:32;;;;;;;0.30;0.30;;;4.20;99.90;;;;;;5008105;28;20272;-63
2023/12/24 06:30:59;;;;;;;0.43;0.40;;;4.30;99.90;;;;;;5007653;28;20209;-63
2023/12/24 06:33:26;;;;;;;0.80;0.50;;;4.30;99.90;;;;;;5010350;28;20221;-64
2023/12/24 06:35:53;;;;;;;1.30;0.60;;;4.30;99.90;;;;;;5006375;28;20283;-63
2023/12/24 06:38:22;;;;;;;0.83;0.50;;;4.30;99.90;;;;;;5009247;28;20270;-64
2023/12/24 06:40:48;;;;;;;1.10;0.60;;;4.20;99.90;;;;;;5003942;28;20210;-64
2023/12/24 06:43:15;;;;;;;0.70;0.53;;;4.30;99.90;;;;;;5008340;28;20222;-64
2023/12/24 06:45:43;;;;;;;0.63;0.60;;;4.10;99.90;;;;;;5014647;28;20294;-64
2023/12/24 06:48:10;;;;;;;0.53;0.53;;;4.20;99.90;;;;;;5012772;28;20212;-64
2023/12/24 06:50:37;;;;;;;1.33;0.40;;;4.10;99.90;;;;;;5007627;28;20750;-64
2023/12/24 06:53:05;;;;;;;0.50;0.50;;;4.10;99.90;;;;;;5012052;28;20725;-66
2023/12/24 06:55:34;;;;;;;1.40;0.47;;;4.00;99.90;;;;;;5013332;28;20263;-67
2023/12/24 06:58:03;;;;;;;0.43;0.43;;;3.90;99.90;;;;;;5010098;28;20699;-67
2023/12/24 07:00:30;;;;;;;0.53;0.53;;;3.90;99.90;;;;;;5013675;28;20339;-64
2023/12/24 07:02:58;;;;;;;0.30;0.30;;;3.90;99.90;;;;;;5013535;28;20230;-64
2023/12/24 07:05:25;;;;;;;1.67;1.10;;;3.90;99.90;;;;;;5010283;28;20252;-63
2023/12/24 07:07:52;;;;;;;0.70;0.70;;;3.80;99.90;;;;;;5012561;28;20623;-64
2023/12/24 07:10:19;;;;;;;1.20;1.20;;;3.80;99.90;;;;;;5011715;28;20267;-64
2023/12/24 07:12:48;;;;;;;0.50;0.50;;;3.70;99.90;;;;;;5011354;28;20249;-65
2023/12/24 07:15:15;;;;;;;0.80;0.50;;;3.70;99.90;;;;;;5015192;28;20303;-64
2023/12/24 07:17:42;;;;;;;1.70;0.80;;;3.60;99.90;;;;;;5013144;28;20586;-64
2023/12/24 07:20:10;;;;;;;2.93;2.73;;;3.50;99.90;;;;;;5013612;28;20212;-65
2023/12/24 07:22:38;;;;;;;2.33;1.60;;;3.70;99.90;;;;;;5013914;28;20212;-66
2023/12/24 07:25:06;;;;;;;1.60;1.20;;;3.80;99.90;;;;;;5013665;28;20252;-64
2023/12/24 07:27:33;;;;;;;1.03;0.90;;;3.90;99.90;;;;;;5016856;28;20700;-64
2023/12/24 07:30:03;;;;;;;1.33;0.97;;;3.90;99.90;;;;;;5012777;28;20665;-64
2023/12/24 07:32:30;;;;;;;0.87;0.87;;;4.00;99.90;;;;;;5012722;28;20587;-64
2023/12/24 07:34:57;;;;;;;15.20;5.40;;;3.90;99.90;;;;;;5013350;28;20640;-65
2023/12/24 07:37:25;;;;;;;13.63;5.33;;;3.90;99.90;;;;;;5013044;28;20223;-64
2023/12/24 07:39:52;;;;;;;3.67;3.10;;;3.90;99.90;;;;;;5015534;28;20197;-65
2023/12/24 07:42:19;;;;;;;2.53;2.27;;;3.90;99.90;;;;;;5011833;28;20247;-65
2023/12/24 07:44:47;;;;;;;3.73;3.43;;;3.80;99.90;;;;;;5012812;28;20224;-64
2023/12/24 07:47:15;;;;;;;2.73;2.57;;;3.80;99.90;;;;;;5012051;28;20613;-64
2023/12/24 07:49:42;;;;;;;2.00;1.63;;;3.90;99.90;;;;;;5011959;28;20205;-64
2023/12/24 07:52:10;;;;;;;3.43;1.20;;;3.90;99.90;;;;;;5012733;28;20289;-64
2023/12/24 07:54:37;;;;;;;1.30;1.20;;;3.90;99.90;;;;;;5004722;28;20223;-64
2023/12/24 07:57:04;;;;;;;1.50;1.40;;;3.90;99.90;;;;;;5012953;28;20682;-64
2023/12/24 07:59:31;;;;;;;1.97;1.67;;;4.00;99.90;;;;;;5010685;28;20212;-64
2023/12/24 08:01:58;;;;;;;1.50;1.47;;;3.90;99.90;;;;;;5008247;28;20820;-64
2023/12/24 08:04:27;;;;;;;1.73;1.63;;;4.00;99.90;;;;;;5011130;28;20281;-64
2023/12/24 08:06:57;;;;;;;1.60;1.50;;;4.00;99.90;;;;;;5010804;28;20697;-64
2023/12/24 08:09:25;;;;;;;2.13;2.00;;;3.90;99.90;;;;;;5008476;28;20209;-64
2023/12/24 08:11:56;;;;;;;2.33;2.13;;;4.10;99.90;;;;;;5010989;28;20205;-64
2023/12/24 08:14:23;;;;;;;1.73;1.63;;;4.10;99.90;;;;;;5013254;28;20224;-64
2023/12/24 08:16:50;;;;;;;1.90;1.53;;;4.20;99.90;;;;;;5012114;28;20583;-65
2023/12/24 08:19:17;;;;;;;1.37;1.23;;;4.20;99.90;;;;;;5011803;28;20273;-64
2023/12/24 08:21:45;;;;;;;1.20;1.10;;;4.40;99.90;;;;;;5012670;28;20211;-64
2023/12/24 08:24:13;;;;;;;1.80;1.00;;;4.70;99.90;;;;;;5008676;28;20641;-64
2023/12/24 08:26:39;;;;;;;1.33;0.57;;;5.00;99.90;;;;;;5016294;28;20303;-64
2023/12/24 08:29:06;;;;;;;3.40;1.10;;;5.20;99.90;;;;;;5011903;28;20521;-68
2023/12/24 08:31:33;;;;;;;0.70;0.70;;;5.30;99.90;;;;;;5016348;28;20207;-66
2023/12/24 08:34:00;;;;;;;1.43;1.33;;;5.50;99.90;;;;;;5011805;28;20221;-64
2023/12/24 08:36:28;;;;;;;1.67;1.03;;;5.60;99.90;;;;;;5011892;28;20256;-66
2023/12/24 08:38:56;;;;;;;0.70;0.70;;;5.70;99.90;;;;;;5011600;28;20694;-67
2023/12/24 08:41:23;;;;;;;0.97;0.80;;;5.90;99.90;;;;;;5015257;28;20211;-67
2023/12/24 08:43:50;;;;;;;0.80;0.80;;;6.30;99.90;;;;;;5020238;28;20247;-65
2023/12/24 08:46:17;;;;;;;0.93;0.90;;;6.80;99.90;;;;;;5012103;28;20341;-69
2023/12/24 08:48:44;;;;;;;0.80;0.80;;;7.40;99.90;;;;;;5011954;28;20200;-70
2023/12/24 08:51:11;;;;;;;0.73;0.40;;;7.80;99.90;;;;;;5012078;28;20554;-73
2023/12/24 08:53:37;;;;;;;1.17;1.07;;;8.10;99.90;;;;;;5001884;28;20726;-73
2023/12/24 08:56:06;;;;;;;1.27;1.27;;;8.50;99.90;;;;;;5009870;28;20239;-72
2023/12/24 08:58:33;;;;;;;1.47;0.77;;;8.80;99.90;;;;;;5006719;28;20271;-74
2023/12/24 09:01:00;;;;;;;0.40;0.40;;;9.00;99.90;;;;;;5012925;28;20290;-73
2023/12/24 09:03:27;;;;;;;0.67;0.67;;;9.10;99.90;;;;;;5010716;28;20233;-68
2023/12/24 09:05:54;;;;;;;4.63;2.30;;;9.20;99.90;;;;;;5010191;28;20233;-68
2023/12/24 09:08:22;;;;;;;1.43;0.80;;;9.10;99.90;;;;;;5010386;28;20680;-69
2023/12/24 09:10:49;;;;;;;0.90;0.90;;;9.00;99.90;;;;;;5011845;28;20415;-67
2023/12/24 09:13:17;;;;;;;0.77;0.77;;;8.90;99.90;;;;;;5012365;28;20223;-69
2023/12/24 09:15:44;;;;;;;1.90;0.60;;;8.80;99.90;;;;;;5015410;28;20614;-69
2023/12/24 09:18:11;;;;;;;0.57;0.57;;;9.00;99.90;;;;;;5009988;28;20247;-68
2023/12/24 09:20:38;;;;;;;0.63;0.63;;;;;;;;;;5003736;28;20284;-69
2023/12/24 09:23:05;;;;;;;1.03;0.50;;;9.20;99.90;;;;;;5011566;28;20251;-70
2023/12/24 09:25:32;;;;;;;1.30;0.60;;;9.20;99.90;;;;;;5011757;28;20307;-69
2023/12/24 09:27:59;;;;;;;0.97;0.97;;;8.90;99.90;;;;;;5011754;28;20202;-67
2023/12/24 09:30:28;;;;;;;0.67;0.67;;;8.80;99.90;;;;;;5013336;28;20255;-67
2023/12/24 09:32:55;;;;;;;0.30;0.30;;;8.60;99.90;;;;;;5027615;28;20208;-68
2023/12/24 09:35:22;;;;;;;0.50;0.40;;;;;;;;;;5023902;28;20656;-67
2023/12/24 09:37:49;;;;;;;0.50;0.50;;;8.50;99.90;;;;;;5009640;28;20201;-67
2023/12/24 09:40:16;;;;;;;0.57;0.57;;;8.40;99.90;;;;;;5010662;28;20280;-68
2023/12/24 09:42:43;;;;;;;0.60;0.60;;;8.50;99.90;;;;;;5011449;28;20267;-66
2023/12/24 09:45:10;;;;;;;0.87;0.87;;;8.60;99.90;;;;;;5006583;28;20311;-67
2023/12/24 09:47:40;;;;;;;0.57;0.57;;;;;;;;;;5021710;28;20255;-67
2023/12/24 09:50:08;;;;;;;0.57;0.57;;;8.40;99.90;;;;;;5008797;28;20588;-68
2023/12/24 09:52:35;;;;;;;0.50;0.50;;;8.40;99.90;;;;;;4990825;28;20243;-67
2023/12/24 09:55:04;;;;;;;0.63;0.50;;;8.30;99.90;;;;;;5000255;28;20219;-65
2023/12/24 09:57:31;;;;;;;0.50;0.50;;;8.20;99.90;;;;;;5021952;28;20248;-69
2023/12/24 09:59:58;;;;;;;0.70;0.70;;;8.20;99.90;;;;;;5020112;28;20752;-64
2023/12/24 10:02:25;;;;;;;0.60;0.60;;;;;;;;;;5008181;28;20209;-64
2023/12/24 10:04:55;;;;;;;1.57;0.70;;;8.30;99.90;;;;;;5010622;28;20224;-67
2023/12/24 10:07:22;;;;;;;1.07;0.77;;;8.40;99.90;;;;;;5016702;28;20324;-68
2023/12/24 10:09:50;;;;;;;8.33;5.53;;;8.40;99.90;;;;;;5033439;23;20236;-63
2023/12/24 10:12:19;;;;;;;1.17;1.07;;;8.40;99.90;;;;;;5011959;28;20209;-62
2023/12/24 10:14:56;;;;;;;0.80;0.80;;;8.50;99.90;;;;;;5009388;28;20210;-61
2023/12/24 10:17:28;;;;;;;0.87;0.77;;;8.50;99.90;;;;;;5021140;28;20192;-61
2023/12/24 10:19:57;;;;;;;0.90;0.90;;;8.40;99.90;;;;;;5029375;28;20282;-63
2023/12/24 10:22:25;;;;;;;0.60;0.60;;;8.30;99.90;;;;;;4997126;28;20274;-61
2023/12/24 10:25:01;;;;;;;0.83;0.83;;;8.20;99.90;;;;;;5008389;28;20232;-61
2023/12/24 10:27:28;;;;;;;1.40;1.30;;;8.10;99.90;;;;;;5025183;28;20217;-61
2023/12/24 10:30:07;;;;;;;1.23;0.97;;;8.10;99.90;;;;;;5013402;28;20224;-61
2023/12/24 10:32:34;;;;;;;0.57;0.57;;;8.00;99.90;;;;;;5031470;28;20196;-61
2023/12/24 10:35:03;;;;;;;1.00;0.70;;;7.90;99.90;;;;;;5028754;28;20195;-61
2023/12/24 10:37:30;;;;;;;0.70;0.60;;;8.00;99.90;;;;;;5029937;28;20282;-61
2023/12/24 10:40:06;;;;;;;2.60;0.60;;;7.90;99.90;;;;;;5014097;28;20225;-61
2023/12/24 10:42:33;;;;;;;1.73;0.90;;;7.60;99.90;;;;;;5031888;28;20212;-61
2023/12/24 10:45:00;;;;;;;2.63;0.87;;;7.50;99.90;;;;;;5018402;28;20202;-61
2023/12/24 10:47:27;;;;;;;1.13;0.77;;;7.50;99.90;;;;;;5024722;28;20250;-62
2023/12/24 10:49:54;;;;;;;0.50;0.50;;;7.50;99.90;;;;;;5014906;28;20228;-62
2023/12/24 10:52:23;;;;;;;0.47;0.47;;;7.50;99.90;;;;;;5024588;28;20204;-61
2023/12/24 10:54:51;;;;;;;1.33;0.53;;;7.50;99.90;;;;;;5021193;28;20209;-61
2023/12/24 10:57:28;;;;;;;1.90;0.70;;;7.50;99.90;;;;;;5018049;28;20200;-61
2023/12/24 11:00:09;;;;;;;3.30;0.60;;;7.50;99.90;;;;;;5011826;28;20235;-61
2023/12/24 11:02:37;;;;;;;1.00;0.70;;;7.50;99.90;;;;;;5019785;28;20224;-61
2023/12/24 11:05:05;;;;;;;2.33;1.00;;;7.50;99.90;;;;;;5012889;28;20248;-61
2023/12/24 11:07:49;;;;;;;1.60;1.50;;;7.50;99.90;;;;;;5014924;28;20229;-61
2023/12/24 11:10:43;;;;;;;2.60;1.23;;;7.40;99.90;;;;;;5019234;28;20235;-61
2023/12/24 11:13:47;;;;;;;1.00;0.90;;;7.50;99.90;;;;;;5013784;28;20197;-61
2023/12/24 11:16:39;;;;;;;1.07;1.00;;;7.40;99.90;;;;;;5007404;28;20201;-63
2023/12/24 11:19:06;;;;;;;1.20;0.70;;;7.40;99.90;;;;;;5021358;28;20244;-63
2023/12/24 11:22:06;;;;;;;0.70;0.70;;;7.50;99.90;;;;;;5017635;28;20715;-62
2023/12/24 11:24:41;;;;;;;2.00;1.10;;;7.40;99.90;;;;;;5014458;28;20208;-62
2023/12/24 11:27:09;;;;;;;1.00;1.00;;;7.50;99.90;;;;;;5024799;28;20724;-62
2023/12/24 11:29:46;;;;;;;0.60;0.60;;;7.50;99.90;;;;;;5028725;28;20295;-63
2023/12/24 11:32:35;;;;;;;1.77;0.63;;;7.50;99.90;;;;;;5014447;28;20637;-63
2023/12/24 11:35:02;;;;;;;0.80;0.80;;;7.50;99.90;;;;;;5014644;28;20209;-63
2023/12/24 11:37:30;;;;;;;1.33;0.70;;;7.60;99.90;;;;;;5014531;28;20205;-64
2023/12/24 11:40:02;;;;;;;1.67;1.40;;;;;;;;;;5018655;28;20641;-63
2023/12/24 11:42:43;;;;;;;3.07;1.73;;;7.40;99.90;;;;;;5026511;28;20697;-63
2023/12/24 11:45:20;;;;;;;2.07;1.20;;;7.50;99.90;;;;;;5024192;28;20284;-63
2023/12/24 11:47:47;;;;;;;0.70;0.70;;;7.60;99.90;;;;;;5013009;28;20249;-63
2023/12/24 11:50:14;;;;;;;0.97;0.70;;;7.50;99.90;;;;;;5014059;28;20296;-63
2023/12/24 11:52:46;;;;;;;1.77;0.80;;;7.60;99.90;;;;;;5006173;28;20248;-64
2023/12/24 11:55:17;;;;;;;1.27;1.10;;;;;;;;;;5015614;28;20212;-64
2023/12/24 11:57:44;;;;;;;1.63;1.53;;;;;;;;;;5005422;28;20622;-64
2023/12/24 12:00:13;;;;;;;2.77;1.67;;;7.70;99.90;;;;;;5013299;28;20766;-64
2023/12/24 12:02:41;;;;;;;1.40;1.30;;;7.80;99.90;;;;;;5013826;28;20207;-63
2023/12/24 12:05:10;;;;;;;2.13;1.00;;;7.80;99.90;;;;;;5013350;28;20293;-62
2023/12/24 12:07:37;;;;;;;1.00;1.00;;;7.80;99.90;;;;;;5013858;28;20312;-60
2023/12/24 12:10:05;;;;;;;0.70;0.70;;;7.90;99.90;;;;;;5012788;28;20330;-63
2023/12/24 12:12:34;;;;;;;1.37;1.27;;;7.90;99.90;;;;;;5018767;28;20205;-55
2023/12/24 12:15:01;;;;;;;1.30;1.20;;;7.90;99.90;;;;;;4995320;28;20202;-55
2023/12/24 12:17:28;;;;;;;1.80;1.70;;;7.90;99.90;;;;;;5013399;28;20263;-55
2023/12/24 12:19:55;;;;;;;7.33;3.63;;;8.00;99.90;;;;;;5012782;28;20311;-53
2023/12/24 12:22:22;;;;;;;6.83;3.43;;;8.10;99.90;;;;;;5013090;28;20257;-55
2023/12/24 12:24:49;;;;;;;3.13;1.83;;;8.00;99.90;;;;;;5013545;28;20259;-64
2023/12/24 12:27:16;;;;;;;2.23;1.80;;;8.00;99.90;;;;;;5011463;28;20236;-63
2023/12/24 12:29:44;;;;;;;2.17;1.53;;;7.90;99.90;;;;;;5014798;28;20733;-64
2023/12/24 12:32:11;;;;;;;3.43;1.63;;;;;;;;;;5012988;28;20244;-64
2023/12/24 12:34:40;;;;;;;1.73;1.63;;;7.30;99.90;;;;;;5012916;28;20208;-63
2023/12/24 12:37:08;;;;;;;2.70;1.77;;;;;;;;;;5013163;28;20568;-63
2023/12/24 12:39:36;;;;;;;1.23;1.17;;;7.80;99.90;;;;;;5011511;28;20242;-64
2023/12/24 12:42:04;;;;;;;1.53;1.10;;;7.90;99.90;;;;;;5010824;28;20205;-64
2023/12/24 12:44:31;;;;;;;4.00;1.50;;;7.90;99.90;;;;;;5013462;28;20218;-62
2023/12/24 12:47:01;;;;;;;1.20;1.17;;;7.80;99.90;;;;;;5012427;28;20228;-64
2023/12/24 12:49:28;;;;;;;0.70;0.70;;;7.90;99.90;;;;;;5011991;28;20235;-64
2023/12/24 12:51:55;;;;;;;1.40;1.30;;;7.90;99.90;;;;;;5012498;28;20201;-63
2023/12/24 12:54:22;;;;;;;0.67;0.67;;;7.90;99.90;;;;;;5012514;28;20205;-63
2023/12/24 12:56:49;;;;;;;0.50;0.50;;;8.00;99.90;;;;;;5013360;28;20233;-62
2023/12/24 12:59:21;;;;;;;0.50;0.47;;;7.90;99.90;;;;;;5012640;28;20221;-63
2023/12/24 13:01:48;;;;;;;0.67;0.67;;;7.90;99.90;;;;;;5013011;28;20252;-63
2023/12/24 13:04:24;;;;;;;0.90;0.77;;;8.00;99.90;;;;;;5011632;28;20267;-63
2023/12/24 13:06:58;;;;;;;0.80;0.70;;;8.00;99.90;;;;;;5005693;28;20648;-63
2023/12/24 13:09:25;;;;;;;1.37;0.63;;;8.00;99.90;;;;;;5011389;28;20233;-62